ITY104 LIRF-LIRN
Flight info
| Callsign | ITY104 |
|---|---|
| Flight time | 0h 28m |
| Altitude | 19000 |
| Route | RIFFI9H RIFFI DCT PNZ PNZ1C |
| Aircraft | A339/H-SDGHIRWXYZ/LB1 |
Departure
| Time | 2026-02-17 11:38 |
|---|---|
| Airport | Rome–Fiumicino Leonardo da Vinci International Airport (LIRF) |
Arrival
| Time | 2026-02-17 12:06 |
|---|---|
| Airport | Naples International Airport (LIRN) |
| Time | Latitude | Longitude | Altitude | Speed | Heading |
|---|---|---|---|---|---|
| 2026-02-17 11:00 | 41.79849 | 12.24653 | -6 ft | 0 kts | 160° |
| 2026-02-17 11:27 | 41.79875 | 12.24640 | 25 ft | 2 kts | 160° |
| 2026-02-17 11:27 | 41.79888 | 12.24632 | 26 ft | 2 kts | 181° |
| 2026-02-17 11:27 | 41.79903 | 12.24633 | 26 ft | 2 kts | 208° |
| 2026-02-17 11:27 | 41.79925 | 12.24647 | 26 ft | 4 kts | 205° |
| 2026-02-17 11:28 | 41.79950 | 12.24662 | 26 ft | 4 kts | 211° |
| 2026-02-17 11:28 | 41.79969 | 12.24680 | 26 ft | 1 kts | 237° |
| 2026-02-17 11:28 | 41.79964 | 12.24665 | 26 ft | 2 kts | 245° |
| 2026-02-17 11:28 | 41.79960 | 12.24649 | 26 ft | 2 kts | 248° |
| 2026-02-17 11:29 | 41.79955 | 12.24633 | 26 ft | 1 kts | 248° |
| 2026-02-17 11:29 | 41.79950 | 12.24618 | 24 ft | 2 kts | 248° |
| 2026-02-17 11:29 | 41.79949 | 12.24614 | 24 ft | 0 kts | 248° |
| 2026-02-17 11:31 | 41.79914 | 12.24491 | 21 ft | 19 kts | 249° |
| 2026-02-17 11:31 | 41.79836 | 12.24358 | 21 ft | 18 kts | 237° |
| 2026-02-17 11:31 | 41.79789 | 12.24201 | 23 ft | 18 kts | 250° |
| 2026-02-17 11:31 | 41.79745 | 12.24041 | 22 ft | 18 kts | 250° |
| 2026-02-17 11:32 | 41.79700 | 12.23879 | 22 ft | 19 kts | 249° |
| 2026-02-17 11:32 | 41.79622 | 12.23777 | 21 ft | 17 kts | 187° |
| 2026-02-17 11:32 | 41.79511 | 12.23818 | 21 ft | 17 kts | 162° |
| 2026-02-17 11:32 | 41.79389 | 12.23869 | 22 ft | 19 kts | 162° |
| 2026-02-17 11:33 | 41.79254 | 12.23926 | 23 ft | 21 kts | 162° |
| 2026-02-17 11:33 | 41.79108 | 12.23987 | 21 ft | 23 kts | 162° |
| 2026-02-17 11:33 | 41.78952 | 12.24054 | 21 ft | 24 kts | 162° |
| 2026-02-17 11:33 | 41.78786 | 12.24123 | 24 ft | 26 kts | 162° |
| 2026-02-17 11:34 | 41.78612 | 12.24195 | 22 ft | 27 kts | 163° |
| 2026-02-17 11:34 | 41.78429 | 12.24269 | 25 ft | 28 kts | 162° |
| 2026-02-17 11:34 | 41.78250 | 12.24321 | 21 ft | 20 kts | 202° |
| 2026-02-17 11:35 | 41.78203 | 12.24220 | 21 ft | 1 kts | 253° |
| 2026-02-17 11:35 | 41.78200 | 12.24202 | 21 ft | 4 kts | 257° |
| 2026-02-17 11:35 | 41.78212 | 12.24119 | 21 ft | 14 kts | 290° |
| 2026-02-17 11:35 | 41.78292 | 12.24002 | 26 ft | 19 kts | 332° |
| 2026-02-17 11:36 | 41.78353 | 12.23975 | 27 ft | 0 kts | 342° |
| 2026-02-17 11:37 | 41.78365 | 12.23970 | 25 ft | 13 kts | 342° |
| 2026-02-17 11:37 | 41.78759 | 12.23799 | 26 ft | 105 kts | 342° |
| 2026-02-17 11:37 | 41.79687 | 12.23405 | 184 ft | 163 kts | 338° |
| 2026-02-17 11:38 | 41.80826 | 12.22952 | 839 ft | 177 kts | 342° |
| 2026-02-17 11:38 | 41.82032 | 12.22496 | 1775 ft | 176 kts | 341° |
| 2026-02-17 11:38 | 41.83106 | 12.21690 | 2566 ft | 187 kts | 316° |
| 2026-02-17 11:39 | 41.83591 | 12.17987 | 3560 ft | 242 kts | 255° |
| 2026-02-17 11:39 | 41.82597 | 12.16086 | 4214 ft | 255 kts | 226° |
| 2026-02-17 11:39 | 41.81086 | 12.14985 | 4326 ft | 241 kts | 195° |
| 2026-02-17 11:39 | 41.79465 | 12.14791 | 4438 ft | 236 kts | 183° |
| 2026-02-17 11:40 | 41.77823 | 12.14677 | 4569 ft | 235 kts | 183° |
| 2026-02-17 11:40 | 41.76192 | 12.14566 | 4677 ft | 235 kts | 184° |
| 2026-02-17 11:40 | 41.74562 | 12.14467 | 4793 ft | 233 kts | 183° |
| 2026-02-17 11:40 | 41.72935 | 12.14370 | 4962 ft | 236 kts | 184° |
| 2026-02-17 11:41 | 41.71273 | 12.14281 | 5473 ft | 245 kts | 184° |
| 2026-02-17 11:41 | 41.69535 | 12.14168 | 6107 ft | 255 kts | 187° |
| 2026-02-17 11:41 | 41.68134 | 12.13616 | 6553 ft | 259 kts | 212° |
| 2026-02-17 11:41 | 41.66585 | 12.12437 | 7446 ft | 256 kts | 214° |
| 2026-02-17 11:42 | 41.65030 | 12.11274 | 8261 ft | 258 kts | 212° |
| 2026-02-17 11:42 | 41.63265 | 12.10647 | 9006 ft | 270 kts | 184° |
| 2026-02-17 11:42 | 41.61415 | 12.11132 | 9758 ft | 276 kts | 155° |
| 2026-02-17 11:43 | 41.57960 | 12.13991 | 10430 ft | 314 kts | 143° |
| 2026-02-17 11:43 | 41.56113 | 12.15729 | 10648 ft | 336 kts | 143° |
| 2026-02-17 11:43 | 41.54148 | 12.17583 | 10860 ft | 356 kts | 143° |
| 2026-02-17 11:43 | 41.52081 | 12.19545 | 11180 ft | 370 kts | 143° |
| 2026-02-17 11:44 | 41.49971 | 12.21544 | 11816 ft | 374 kts | 143° |
| 2026-02-17 11:44 | 41.47834 | 12.23566 | 12458 ft | 379 kts | 143° |
| 2026-02-17 11:44 | 41.45672 | 12.25607 | 13100 ft | 383 kts | 143° |
| 2026-02-17 11:44 | 41.43486 | 12.27669 | 13717 ft | 387 kts | 143° |
| 2026-02-17 11:45 | 41.41272 | 12.29754 | 14231 ft | 393 kts | 143° |
| 2026-02-17 11:45 | 41.39027 | 12.31870 | 14775 ft | 397 kts | 143° |
| 2026-02-17 11:45 | 41.36757 | 12.34012 | 15305 ft | 402 kts | 143° |
| 2026-02-17 11:45 | 41.34462 | 12.36179 | 15840 ft | 407 kts | 143° |
| 2026-02-17 11:46 | 41.32137 | 12.38375 | 16362 ft | 412 kts | 143° |
| 2026-02-17 11:46 | 41.29778 | 12.40604 | 16785 ft | 420 kts | 143° |
| 2026-02-17 11:46 | 41.27397 | 12.42855 | 17507 ft | 420 kts | 144° |
| 2026-02-17 11:47 | 41.22582 | 12.47422 | 18424 ft | 431 kts | 144° |
| 2026-02-17 11:47 | 41.20121 | 12.49759 | 18607 ft | 436 kts | 144° |
| 2026-02-17 11:47 | 41.17778 | 12.52293 | 18691 ft | 435 kts | 132° |
| 2026-02-17 11:47 | 41.15754 | 12.55270 | 18791 ft | 436 kts | 129° |
| 2026-02-17 11:48 | 41.13743 | 12.58281 | 18795 ft | 436 kts | 129° |
| 2026-02-17 11:48 | 41.11736 | 12.61286 | 18799 ft | 435 kts | 129° |
| 2026-02-17 11:48 | 41.09727 | 12.64292 | 18785 ft | 436 kts | 129° |
| 2026-02-17 11:48 | 41.07717 | 12.67300 | 18784 ft | 435 kts | 129° |
| 2026-02-17 11:49 | 41.05727 | 12.70275 | 18784 ft | 441 kts | 129° |
| 2026-02-17 11:49 | 41.03662 | 12.73358 | 18789 ft | 441 kts | 129° |
| 2026-02-17 11:49 | 41.01659 | 12.76350 | 18791 ft | 440 kts | 129° |
| 2026-02-17 11:49 | 40.99630 | 12.79388 | 18788 ft | 441 kts | 129° |
| 2026-02-17 11:50 | 40.97592 | 12.82459 | 18787 ft | 447 kts | 129° |
| 2026-02-17 11:50 | 40.95547 | 12.85542 | 18657 ft | 443 kts | 129° |
| 2026-02-17 11:50 | 40.93597 | 12.88659 | 18313 ft | 437 kts | 125° |
| 2026-02-17 11:51 | 40.90809 | 12.95508 | 16970 ft | 415 kts | 100° |
| 2026-02-17 11:51 | 40.90285 | 12.99231 | 15850 ft | 411 kts | 90° |
| 2026-02-17 11:51 | 40.90061 | 13.02993 | 14862 ft | 410 kts | 90° |
| 2026-02-17 11:51 | 40.89703 | 13.06708 | 14053 ft | 405 kts | 93° |
| 2026-02-17 11:52 | 40.89254 | 13.10353 | 13260 ft | 399 kts | 95° |
| 2026-02-17 11:52 | 40.88771 | 13.13936 | 12551 ft | 390 kts | 96° |
| 2026-02-17 11:52 | 40.88290 | 13.17390 | 12076 ft | 376 kts | 96° |
| 2026-02-17 11:52 | 40.87822 | 13.20733 | 11550 ft | 364 kts | 96° |
| 2026-02-17 11:53 | 40.87373 | 13.23964 | 11065 ft | 353 kts | 96° |
| 2026-02-17 11:53 | 40.86940 | 13.27103 | 10590 ft | 342 kts | 95° |
| 2026-02-17 11:53 | 40.86521 | 13.30150 | 10242 ft | 331 kts | 95° |
| 2026-02-17 11:53 | 40.86116 | 13.33072 | 10067 ft | 315 kts | 95° |
| 2026-02-17 11:54 | 40.85726 | 13.35877 | 9639 ft | 306 kts | 95° |
| 2026-02-17 11:54 | 40.85476 | 13.37683 | 9461 ft | 299 kts | 95° |
| 2026-02-17 11:54 | 40.85102 | 13.40415 | 9338 ft | 304 kts | 95° |
| 2026-02-17 11:55 | 40.84350 | 13.45876 | 9069 ft | 302 kts | 95° |
| 2026-02-17 11:55 | 40.83971 | 13.48607 | 8940 ft | 302 kts | 95° |
| 2026-02-17 11:55 | 40.83592 | 13.51319 | 8636 ft | 299 kts | 95° |
| 2026-02-17 11:55 | 40.83216 | 13.53983 | 8325 ft | 290 kts | 95° |
| 2026-02-17 11:56 | 40.82852 | 13.56542 | 8023 ft | 277 kts | 95° |
| 2026-02-17 11:56 | 40.82505 | 13.58985 | 7734 ft | 265 kts | 95° |
| 2026-02-17 11:56 | 40.82162 | 13.61491 | 7447 ft | 296 kts | 95° |
| 2026-02-17 11:56 | 40.81790 | 13.64251 | 7265 ft | 309 kts | 95° |
| 2026-02-17 11:57 | 40.81400 | 13.67007 | 7220 ft | 301 kts | 95° |
| 2026-02-17 11:57 | 40.81018 | 13.69656 | 7075 ft | 287 kts | 95° |
| 2026-02-17 11:57 | 40.80649 | 13.72230 | 6574 ft | 282 kts | 95° |
| 2026-02-17 11:57 | 40.80289 | 13.74758 | 5967 ft | 280 kts | 95° |
| 2026-02-17 11:58 | 40.79936 | 13.77245 | 5594 ft | 269 kts | 95° |
| 2026-02-17 11:58 | 40.79600 | 13.79600 | 5323 ft | 255 kts | 95° |
| 2026-02-17 11:58 | 40.79277 | 13.81897 | 5063 ft | 267 kts | 95° |
| 2026-02-17 11:59 | 40.78563 | 13.87076 | 4731 ft | 288 kts | 96° |
| 2026-02-17 11:59 | 40.78195 | 13.89615 | 4582 ft | 275 kts | 96° |
| 2026-02-17 11:59 | 40.77838 | 13.92061 | 4093 ft | 267 kts | 96° |
| 2026-02-17 11:59 | 40.77488 | 13.94481 | 3986 ft | 265 kts | 96° |
| 2026-02-17 12:00 | 40.77153 | 13.96779 | 3865 ft | 246 kts | 96° |
| 2026-02-17 12:00 | 40.76844 | 13.98923 | 3757 ft | 231 kts | 96° |
| 2026-02-17 12:00 | 40.76549 | 14.00974 | 3713 ft | 228 kts | 96° |
| 2026-02-17 12:00 | 40.76266 | 14.02969 | 3699 ft | 212 kts | 95° |
| 2026-02-17 12:01 | 40.76264 | 14.04788 | 3705 ft | 186 kts | 70° |
| 2026-02-17 12:01 | 40.76754 | 14.06347 | 3686 ft | 184 kts | 52° |
| 2026-02-17 12:01 | 40.77458 | 14.07718 | 3683 ft | 179 kts | 46° |
| 2026-02-17 12:01 | 40.78187 | 14.09043 | 3713 ft | 178 kts | 50° |
| 2026-02-17 12:02 | 40.78888 | 14.10397 | 3716 ft | 180 kts | 49° |
| 2026-02-17 12:02 | 40.79605 | 14.11746 | 3714 ft | 179 kts | 48° |
| 2026-02-17 12:02 | 40.80327 | 14.13111 | 3530 ft | 182 kts | 49° |
| 2026-02-17 12:03 | 40.81709 | 14.15737 | 2962 ft | 165 kts | 48° |
| 2026-02-17 12:03 | 40.82348 | 14.16948 | 2717 ft | 161 kts | 49° |
| 2026-02-17 12:03 | 40.82970 | 14.18138 | 2465 ft | 155 kts | 49° |
| 2026-02-17 12:03 | 40.83556 | 14.19244 | 2214 ft | 139 kts | 49° |
| 2026-02-17 12:04 | 40.84120 | 14.20313 | 2003 ft | 146 kts | 48° |
| 2026-02-17 12:04 | 40.84680 | 14.21375 | 1787 ft | 140 kts | 47° |
| 2026-02-17 12:04 | 40.85249 | 14.22449 | 1547 ft | 142 kts | 48° |
| 2026-02-17 12:04 | 40.85804 | 14.23506 | 1353 ft | 140 kts | 49° |
| 2026-02-17 12:05 | 40.86354 | 14.24554 | 1096 ft | 138 kts | 49° |
| 2026-02-17 12:05 | 40.86930 | 14.25647 | 886 ft | 143 kts | 52° |
| 2026-02-17 12:05 | 40.87463 | 14.26665 | 645 ft | 134 kts | 52° |
| 2026-02-17 12:05 | 40.87963 | 14.27745 | 384 ft | 136 kts | 52° |
| 2026-02-17 12:06 | 40.88479 | 14.28816 | 287 ft | 141 kts | 53° |
| 2026-02-17 12:06 | 40.88888 | 14.29675 | 257 ft | 48 kts | 58° |
| 2026-02-17 12:06 | 40.89033 | 14.29982 | 247 ft | 35 kts | 59° |
| 2026-02-17 12:07 | 40.88976 | 14.30173 | 244 ft | 11 kts | 176° |
| 2026-02-17 12:07 | 40.88924 | 14.30125 | 246 ft | 9 kts | 226° |
| 2026-02-17 12:07 | 40.88885 | 14.30060 | 249 ft | 9 kts | 230° |
| 2026-02-17 12:07 | 40.88839 | 14.29986 | 251 ft | 17 kts | 231° |
| 2026-02-17 12:08 | 40.88710 | 14.29762 | 259 ft | 43 kts | 234° |
| 2026-02-17 12:08 | 40.88533 | 14.29449 | 268 ft | 41 kts | 232° |
| 2026-02-17 12:08 | 40.88370 | 14.29166 | 275 ft | 31 kts | 232° |
| 2026-02-17 12:08 | 40.88256 | 14.28972 | 280 ft | 27 kts | 233° |
| 2026-02-17 12:09 | 40.88145 | 14.28777 | 285 ft | 26 kts | 233° |
| 2026-02-17 12:09 | 40.88040 | 14.28596 | 295 ft | 24 kts | 232° |
| 2026-02-17 12:09 | 40.87936 | 14.28440 | 297 ft | 14 kts | 251° |
| 2026-02-17 12:09 | 40.87946 | 14.28333 | 295 ft | 11 kts | 276° |
| 2026-02-17 12:10 | 40.87956 | 14.28233 | 300 ft | 11 kts | 279° |
| 2026-02-17 12:10 | 40.87957 | 14.28133 | 300 ft | 11 kts | 258° |
| 2026-02-17 12:10 | 40.87921 | 14.28058 | 303 ft | 8 kts | 231° |
| 2026-02-17 12:11 | 40.87846 | 14.27946 | 306 ft | 8 kts | 214° |
| 2026-02-17 12:11 | 40.87822 | 14.27928 | 308 ft | 1 kts | 217° |
| 2026-02-17 12:11 | 40.87817 | 14.27918 | 308 ft | 1 kts | 228° |
| 2026-02-17 12:11 | 40.87806 | 14.27875 | 305 ft | 5 kts | 258° |
| 2026-02-17 12:12 | 40.87806 | 14.27872 | 305 ft | 0 kts | 258° |
| 2026-02-17 12:12 | 40.87803 | 14.27855 | 306 ft | 1 kts | 260° |
| 2026-02-17 12:13 | 40.87802 | 14.27845 | 307 ft | 0 kts | 262° |